createdAt,value
2019-04-10T00:00:53.104Z,64.14
2019-04-10T00:01:53.087Z,63.95
2019-04-10T00:02:53.590Z,64.24
2019-04-10T00:03:52.825Z,64.62
2019-04-10T00:04:53.624Z,64.62
2019-04-10T00:05:54.272Z,64.34
2019-04-10T00:07:06.993Z,64.43
2019-04-10T00:07:53.548Z,64.43
2019-04-10T00:08:52.939Z,64.53
2019-04-10T00:09:53.041Z,64.62
2019-04-10T00:10:52.952Z,64.53
2019-04-10T00:11:54.245Z,64.14
2019-04-10T00:12:54.119Z,64.24
2019-04-10T00:13:55.270Z,64.24
2019-04-10T00:14:53.068Z,64.34
2019-04-10T00:15:53.070Z,64.72
2019-04-10T00:16:54.258Z,64.72
2019-04-10T00:17:53.563Z,64.72
2019-04-10T00:18:54.010Z,65.09
2019-04-10T00:19:54.005Z,65.19
2019-04-10T00:20:53.258Z,65.28
2019-04-10T00:21:53.573Z,65.67
2019-04-10T00:22:53.222Z,65.57
2019-04-10T00:23:53.450Z,65.38
2019-04-10T00:24:53.265Z,65.47
2019-04-10T00:25:53.286Z,65.47
2019-04-10T00:26:54.303Z,65.47
2019-04-10T00:27:53.329Z,65.47
2019-04-10T00:28:53.905Z,65.54
2019-04-10T00:29:54.344Z,65.92
2019-04-10T00:30:53.611Z,66.05
2019-04-10T00:31:54.223Z,65.57
2019-04-10T00:32:54.440Z,65.63
2019-04-10T00:33:53.605Z,65.54
2019-04-10T00:34:54.007Z,66.01
2019-04-10T00:35:54.013Z,66.20
2019-04-10T00:36:53.532Z,66.11
2019-04-10T00:37:53.562Z,66.11
2019-04-10T00:38:53.900Z,66.11
2019-04-10T00:39:53.595Z,66.11
2019-04-10T00:40:53.630Z,66.11
2019-04-10T00:41:54.618Z,65.92
2019-04-10T00:42:53.803Z,66.11
2019-04-10T00:43:53.688Z,66.11
2019-04-10T00:44:54.209Z,65.82
2019-04-10T00:45:53.731Z,65.92
2019-04-10T00:46:54.743Z,66.11
2019-04-10T00:47:53.774Z,65.92
2019-04-10T00:48:54.515Z,66.20
2019-04-10T00:49:53.824Z,66.30
2019-04-10T00:50:54.906Z,66.11
2019-04-10T00:51:53.866Z,65.92
2019-04-10T00:52:54.691Z,66.11
2019-04-10T00:53:53.961Z,66.20
2019-04-10T00:54:53.934Z,66.20
2019-04-10T00:55:54.345Z,65.82
2019-04-10T00:56:53.980Z,66.11
2019-04-10T00:57:54.745Z,66.20
2019-04-10T00:58:54.021Z,65.92
2019-04-10T00:59:54.692Z,66.39
2019-04-10T01:00:55.028Z,66.11
2019-04-10T01:01:54.317Z,66.20
2019-04-10T01:02:54.118Z,66.58
2019-04-10T01:03:54.137Z,66.96
2019-04-10T01:04:55.054Z,66.67
2019-04-10T01:05:54.175Z,67.06
2019-04-10T01:06:54.559Z,66.96
2019-04-10T01:07:54.226Z,66.77
2019-04-10T01:08:55.152Z,66.96
2019-04-10T01:09:54.279Z,66.58
2019-04-10T01:10:54.688Z,67.25
2019-04-10T01:11:55.236Z,66.96
2019-04-10T01:12:54.498Z,67.25
2019-04-10T01:13:54.349Z,67.15
2019-04-10T01:14:54.378Z,66.96
2019-04-10T01:15:55.168Z,67.44
2019-04-10T01:16:54.418Z,67.63
2019-04-10T01:17:54.817Z,67.63
2019-04-10T01:18:55.157Z,67.72
2019-04-10T01:19:54.511Z,68.10
2019-04-10T01:20:55.495Z,68.10
2019-04-10T01:21:54.850Z,67.91
2019-04-10T01:22:55.253Z,68.01
2019-04-10T01:23:55.321Z,67.91
2019-04-10T01:24:54.604Z,67.72
2019-04-10T01:25:54.805Z,68.10
2019-04-10T01:26:55.825Z,67.82
2019-04-10T01:27:54.669Z,67.91
2019-04-10T01:28:55.578Z,68.10
2019-04-10T01:29:54.743Z,67.82
2019-04-10T01:30:54.982Z,67.91
2019-04-10T01:31:55.281Z,67.91
2019-04-10T01:32:54.778Z,68.10
2019-04-10T01:33:54.884Z,68.19
2019-04-10T01:34:55.903Z,68.44
2019-04-10T01:35:54.835Z,68.54
2019-04-10T01:36:54.881Z,68.16
2019-04-10T01:38:00.423Z,68.58
2019-04-10T01:38:54.930Z,68.10
2019-04-10T01:39:54.929Z,68.26
2019-04-10T01:40:55.356Z,69.02
2019-04-10T01:41:54.971Z,68.86
2019-04-10T01:43:08.262Z,68.77
2019-04-10T01:43:55.299Z,68.83
2019-04-10T01:44:55.223Z,68.58
2019-04-10T01:45:55.059Z,69.30
2019-04-10T01:46:55.091Z,69.11
2019-04-10T01:47:55.348Z,69.02
2019-04-10T01:48:55.518Z,68.67
2019-04-10T01:49:55.770Z,68.96
2019-04-10T01:50:55.184Z,68.83
2019-04-10T01:51:55.363Z,69.40
2019-04-10T01:52:55.549Z,69.11
2019-04-10T01:53:55.255Z,69.21
2019-04-10T01:54:55.498Z,69.30
2019-04-10T01:55:55.557Z,69.30
2019-04-10T01:56:55.634Z,69.40
2019-04-10T01:57:55.323Z,69.87
2019-04-10T01:58:55.349Z,69.78
2019-04-10T01:59:56.312Z,69.68
2019-04-10T02:00:56.299Z,69.68
2019-04-10T02:01:55.417Z,69.49
2019-04-10T02:02:55.881Z,69.68
2019-04-10T02:03:55.463Z,69.49
2019-04-10T02:04:56.676Z,69.30
2019-04-10T02:05:55.500Z,69.68
2019-04-10T02:06:55.912Z,69.49
2019-04-10T02:08:03.197Z,69.87
2019-04-10T02:08:56.363Z,69.78
2019-04-10T02:09:56.184Z,69.68
2019-04-10T02:10:56.572Z,69.68
2019-04-10T02:11:56.518Z,69.78
2019-04-10T02:12:55.658Z,69.59
2019-04-10T02:13:56.681Z,69.59
2019-04-10T02:14:56.546Z,69.96
2019-04-10T02:15:56.664Z,70.35
2019-04-10T02:16:56.935Z,69.78
2019-04-10T02:17:55.770Z,70.54
2019-04-10T02:18:55.785Z,70.25
2019-04-10T02:19:56.803Z,69.87
2019-04-10T02:20:55.830Z,69.68
2019-04-10T02:21:56.149Z,69.68
2019-04-10T02:22:56.204Z,69.68
2019-04-10T02:23:55.910Z,70.25
2019-04-10T02:24:55.914Z,70.15
2019-04-10T02:25:56.986Z,70.54
2019-04-10T02:26:56.166Z,70.92
2019-04-10T02:27:56.381Z,70.63
2019-04-10T02:28:55.998Z,70.73
2019-04-10T02:29:56.022Z,69.78
2019-04-10T02:30:56.708Z,70.82
2019-04-10T02:31:57.345Z,70.63
2019-04-10T02:32:57.789Z,70.54
2019-04-10T02:33:59.086Z,70.73
2019-04-10T02:34:57.524Z,70.25
2019-04-10T02:35:57.156Z,70.63
2019-04-10T02:36:56.171Z,70.82
2019-04-10T02:37:58.317Z,70.73
2019-04-10T02:39:08.507Z,70.73
2019-04-10T02:40:00.292Z,70.73
2019-04-10T02:40:57.493Z,71.20
2019-04-10T02:41:56.366Z,70.63
2019-04-10T02:42:56.647Z,70.63
2019-04-10T02:43:57.964Z,70.54
2019-04-10T02:44:57.811Z,70.82
2019-04-10T02:45:57.724Z,70.82
2019-04-10T02:46:59.076Z,70.63
2019-04-10T02:47:56.598Z,70.92
2019-04-10T02:48:57.828Z,70.73
2019-04-10T02:49:56.739Z,70.92
2019-04-10T02:50:57.588Z,70.63
2019-04-10T02:51:56.996Z,71.11
2019-04-10T02:52:57.244Z,70.73
2019-04-10T02:53:58.010Z,70.92
2019-04-10T02:54:57.794Z,70.92
2019-04-10T02:55:58.194Z,71.58
2019-04-10T02:56:56.928Z,71.48
2019-04-10T02:57:58.624Z,71.01
2019-04-10T02:58:56.778Z,70.92
2019-04-10T02:59:57.536Z,71.01
2019-04-10T03:00:56.703Z,71.01
2019-04-10T03:01:57.994Z,70.92
2019-04-10T03:02:59.045Z,70.54
2019-04-10T03:03:56.805Z,70.63
2019-04-10T03:04:57.370Z,70.92
2019-04-10T03:05:58.571Z,71.01
2019-04-10T03:06:57.647Z,71.11
2019-04-10T03:07:58.286Z,71.01
2019-04-10T03:09:11.911Z,70.82
2019-04-10T03:10:08.739Z,70.82
2019-04-10T03:11:03.611Z,70.82
2019-04-10T03:11:57.394Z,70.63
2019-04-10T03:12:58.558Z,70.63
2019-04-10T03:13:56.988Z,71.11
2019-04-10T03:14:56.999Z,71.86
2019-04-10T03:15:57.789Z,71.58
2019-04-10T03:16:57.049Z,70.82
2019-04-10T03:17:57.070Z,70.54
2019-04-10T03:18:57.083Z,70.63
2019-04-10T03:19:58.085Z,70.63
2019-04-10T03:20:57.157Z,71.11
2019-04-10T03:21:57.700Z,70.92
2019-04-10T03:22:57.175Z,70.92
2019-04-10T03:23:57.983Z,70.63
2019-04-10T03:24:57.220Z,70.54
2019-04-10T03:25:57.329Z,70.73
2019-04-10T03:26:58.192Z,71.01
2019-04-10T03:27:57.275Z,71.01
2019-04-10T03:28:57.740Z,70.63
2019-04-10T03:29:57.325Z,71.67
2019-04-10T03:30:59.974Z,71.67
2019-04-10T03:31:59.343Z,71.58
2019-04-10T03:33:03.004Z,71.30
2019-04-10T03:33:58.712Z,71.01
2019-04-10T03:34:58.459Z,71.30
2019-04-10T03:35:57.453Z,71.20
2019-04-10T03:36:58.086Z,70.63
2019-04-10T03:37:57.501Z,71.20
2019-04-10T03:39:02.972Z,71.77
2019-04-10T03:39:57.535Z,71.58
2019-04-10T03:40:57.711Z,71.20
2019-04-10T03:41:57.577Z,71.67
2019-04-10T03:42:57.599Z,71.58
2019-04-10T03:43:58.441Z,71.67
2019-04-10T03:44:57.649Z,71.39
2019-04-10T03:45:57.665Z,71.48
2019-04-10T03:46:58.671Z,71.86
2019-04-10T03:47:58.038Z,71.77
2019-04-10T03:48:57.797Z,71.67
2019-04-10T03:49:58.251Z,72.21
2019-04-10T03:50:58.669Z,72.11
2019-04-10T03:51:57.799Z,72.06
2019-04-10T03:52:57.971Z,72.11
2019-04-10T03:53:58.436Z,72.02
2019-04-10T03:54:58.687Z,72.02
2019-04-10T03:55:59.042Z,72.72
2019-04-10T03:56:58.296Z,71.96
2019-04-10T03:57:58.691Z,72.30
2019-04-10T03:58:57.989Z,72.11
2019-04-10T03:59:58.162Z,72.30
2019-04-10T04:00:58.554Z,72.30
2019-04-10T04:01:58.012Z,72.06
2019-04-10T04:02:58.233Z,71.83
2019-04-10T04:03:58.058Z,72.59
2019-04-10T04:04:58.085Z,72.88
2019-04-10T04:05:59.127Z,72.78
2019-04-10T04:06:58.118Z,72.59
2019-04-10T04:07:59.126Z,72.78
2019-04-10T04:09:06.668Z,73.07
2019-04-10T04:09:58.212Z,72.88
2019-04-10T04:10:59.203Z,73.16
2019-04-10T04:11:58.222Z,73.16
2019-04-10T04:13:00.018Z,73.25
2019-04-10T04:13:58.274Z,73.35
2019-04-10T04:14:59.104Z,73.07
2019-04-10T04:15:58.311Z,73.25
2019-04-10T04:16:58.330Z,72.78
2019-04-10T04:17:58.360Z,72.59
2019-04-10T04:18:58.382Z,73.07
2019-04-10T04:19:58.819Z,73.25
2019-04-10T04:20:59.344Z,73.16
2019-04-10T04:21:58.528Z,73.16
2019-04-10T04:22:58.472Z,72.68
2019-04-10T04:23:59.416Z,72.59
2019-04-10T04:24:58.500Z,72.78
2019-04-10T04:25:58.946Z,73.54
2019-04-10T04:26:58.546Z,73.07
2019-04-10T04:27:58.570Z,72.68
2019-04-10T04:28:58.590Z,72.63
2019-04-10T04:29:59.646Z,72.25
2019-04-10T04:30:58.884Z,71.96
2019-04-10T04:31:59.127Z,72.63
2019-04-10T04:32:58.672Z,72.15
2019-04-10T04:33:59.622Z,71.86
2019-04-10T04:34:59.756Z,71.67
2019-04-10T04:35:59.843Z,71.67
2019-04-10T04:36:58.761Z,71.64
2019-04-10T04:37:58.778Z,71.64
2019-04-10T04:38:59.883Z,71.55
2019-04-10T04:39:58.824Z,71.36
2019-04-10T04:40:58.844Z,71.36
2019-04-10T04:41:58.862Z,71.45
2019-04-10T04:42:58.891Z,71.64
2019-04-10T04:43:58.917Z,70.98
2019-04-10T04:44:58.932Z,71.55
2019-04-10T04:45:59.205Z,71.45
2019-04-10T04:46:59.189Z,71.36
2019-04-10T04:47:59.777Z,70.69
2019-04-10T04:48:59.782Z,70.69
2019-04-10T04:49:59.212Z,70.98
2019-04-10T04:50:59.864Z,70.98
2019-04-10T04:52:00.200Z,70.69
2019-04-10T04:52:59.098Z,70.88
2019-04-10T04:53:59.125Z,69.84
2019-04-10T04:54:59.140Z,70.31
2019-04-10T04:55:59.655Z,70.31
2019-04-10T04:57:00.133Z,70.59
2019-04-10T04:57:59.863Z,70.35
2019-04-10T04:58:59.495Z,70.82
2019-04-10T04:59:59.251Z,70.15
2019-04-10T05:00:59.275Z,70.44
2019-04-10T05:01:59.291Z,70.31
2019-04-10T05:02:59.803Z,70.40
2019-04-10T05:04:00.312Z,70.69
2019-04-10T05:05:00.379Z,70.88
2019-04-10T05:06:00.297Z,70.69
2019-04-10T05:06:59.919Z,70.78
2019-04-10T05:08:02.563Z,70.78
2019-04-10T05:08:59.438Z,70.31
2019-04-10T05:10:01.415Z,70.50
2019-04-10T05:11:00.133Z,70.78
2019-04-10T05:12:00.611Z,70.78
2019-04-10T05:12:59.933Z,70.59
2019-04-10T05:13:59.547Z,70.03
2019-04-10T05:15:00.358Z,70.03
2019-04-10T05:15:59.601Z,69.65
2019-04-10T05:16:59.611Z,69.65
2019-04-10T05:17:59.775Z,69.74
2019-04-10T05:18:59.655Z,70.40
2019-04-10T05:20:00.647Z,69.84
2019-04-10T05:21:00.720Z,70.03
2019-04-10T05:21:59.715Z,69.65
2019-04-10T05:22:59.954Z,69.55
2019-04-10T05:23:59.758Z,69.46
2019-04-10T05:25:00.678Z,69.74
2019-04-10T05:26:00.541Z,69.74
2019-04-10T05:26:59.893Z,69.17
2019-04-10T05:27:59.846Z,68.79
2019-04-10T05:29:00.533Z,68.70
2019-04-10T05:29:59.993Z,68.79
2019-04-10T05:31:00.921Z,68.70
2019-04-10T05:32:00.934Z,68.41
2019-04-10T05:32:59.958Z,68.51
2019-04-10T05:34:00.863Z,69.17
2019-04-10T05:35:01.195Z,69.27
2019-04-10T05:36:00.025Z,68.70
2019-04-10T05:37:00.040Z,68.92
2019-04-10T05:38:00.436Z,68.13
2019-04-10T05:39:00.083Z,67.65
2019-04-10T05:40:01.188Z,68.04
2019-04-10T05:41:01.264Z,67.08
2019-04-10T05:42:02.328Z,67.37
2019-04-10T05:43:00.163Z,68.13
2019-04-10T05:44:00.730Z,67.75
2019-04-10T05:45:00.752Z,68.04
2019-04-10T05:46:00.227Z,68.41
2019-04-10T05:47:01.185Z,67.97
2019-04-10T05:48:01.191Z,67.59
2019-04-10T05:49:00.291Z,67.50
2019-04-10T05:50:00.313Z,67.59
2019-04-10T05:51:04.301Z,67.02
2019-04-10T05:52:00.352Z,66.99
2019-04-10T05:53:00.375Z,67.27
2019-04-10T05:54:00.397Z,66.80
2019-04-10T05:55:00.425Z,66.89
2019-04-10T05:56:01.483Z,66.89
2019-04-10T05:57:01.159Z,66.99
2019-04-10T05:58:01.526Z,66.99
2019-04-10T05:59:00.500Z,66.93
2019-04-10T06:00:00.581Z,66.42
2019-04-10T06:01:01.014Z,66.36
2019-04-10T06:02:01.081Z,66.08
2019-04-10T06:03:00.600Z,65.98
2019-04-10T06:04:00.918Z,66.08
2019-04-10T06:05:00.628Z,65.98
2019-04-10T06:06:01.179Z,65.88
2019-04-10T06:07:00.948Z,65.88
2019-04-10T06:08:01.345Z,65.79
2019-04-10T06:09:00.711Z,66.08
2019-04-10T06:10:04.970Z,65.79
2019-04-10T06:11:00.774Z,65.41
2019-04-10T06:12:00.779Z,65.37
2019-04-10T06:13:00.800Z,66.14
2019-04-10T06:14:01.145Z,66.04
2019-04-10T06:15:00.846Z,66.36
2019-04-10T06:16:01.541Z,66.27
2019-04-10T06:17:04.034Z,65.79
2019-04-10T06:18:00.908Z,65.41
2019-04-10T06:19:01.845Z,65.79
2019-04-10T06:20:00.956Z,66.27
2019-04-10T06:21:00.991Z,66.08
2019-04-10T06:22:01.094Z,65.98
2019-04-10T06:23:01.300Z,65.41
2019-04-10T06:24:01.026Z,64.46
2019-04-10T06:25:01.062Z,65.79
2019-04-10T06:26:03.450Z,67.40
2019-04-10T06:27:01.872Z,66.36
2019-04-10T06:28:01.179Z,65.88
2019-04-10T06:29:02.297Z,66.08
2019-04-10T06:30:01.860Z,66.27
2019-04-10T06:31:01.186Z,65.69
2019-04-10T06:32:01.234Z,65.79
2019-04-10T06:33:02.173Z,65.69
2019-04-10T06:34:01.420Z,65.98
2019-04-10T06:35:01.945Z,66.36
2019-04-10T06:36:01.288Z,66.27
2019-04-10T06:37:01.919Z,65.88
2019-04-10T06:38:02.326Z,65.98
2019-04-10T06:39:02.551Z,66.08
2019-04-10T06:40:10.759Z,65.88
2019-04-10T06:41:02.188Z,66.27
2019-04-10T06:42:02.552Z,66.27
2019-04-10T06:43:01.457Z,66.08
2019-04-10T06:44:01.524Z,65.12
2019-04-10T06:45:02.715Z,64.17
2019-04-10T06:46:01.536Z,63.42
2019-04-10T06:47:02.181Z,63.70
2019-04-10T06:48:02.426Z,63.45
2019-04-10T06:49:02.958Z,63.45
2019-04-10T06:50:02.552Z,62.97
2019-04-10T06:51:02.100Z,63.73
2019-04-10T06:52:01.945Z,63.26
2019-04-10T06:53:01.671Z,63.26
2019-04-10T06:54:06.934Z,63.35
2019-04-10T06:55:02.917Z,63.07
2019-04-10T06:56:02.811Z,63.26
2019-04-10T06:57:02.770Z,62.66
2019-04-10T06:58:02.749Z,62.56
2019-04-10T06:59:02.531Z,62.59
2019-04-10T07:00:02.333Z,62.59
2019-04-10T07:01:01.963Z,62.88
2019-04-10T07:02:13.975Z,62.59
2019-04-10T07:03:02.993Z,62.31
2019-04-10T07:04:06.506Z,61.45
2019-04-10T07:05:05.765Z,61.36
2019-04-10T07:06:09.753Z,61.74
2019-04-10T07:07:07.816Z,61.65
2019-04-10T07:08:10.584Z,61.93
2019-04-10T07:09:02.016Z,61.45
2019-04-10T07:10:02.365Z,60.98
2019-04-10T07:11:08.173Z,60.50
2019-04-10T07:12:03.388Z,60.60
2019-04-10T07:13:05.531Z,60.79
2019-04-10T07:14:02.123Z,60.72
2019-04-10T07:15:02.395Z,60.06
2019-04-10T07:16:02.260Z,60.44
2019-04-10T07:17:05.448Z,59.96
2019-04-10T07:18:03.042Z,59.87
2019-04-10T07:19:05.595Z,60.35
2019-04-10T07:20:02.238Z,59.77
2019-04-10T07:21:02.263Z,59.49
2019-04-10T07:22:07.414Z,59.58
2019-04-10T07:23:03.064Z,59.30
2019-04-10T07:24:06.308Z,58.35
2019-04-10T07:25:02.895Z,58.44
2019-04-10T07:26:02.366Z,58.25
2019-04-10T07:27:04.604Z,58.44
2019-04-10T07:28:02.885Z,58.16
2019-04-10T07:29:02.655Z,58.06
2019-04-10T07:30:03.515Z,58.25
2019-04-10T07:31:08.116Z,58.25
2019-04-10T07:32:04.860Z,58.25
2019-04-10T07:33:03.409Z,57.97
2019-04-10T07:34:03.336Z,57.62
2019-04-10T07:35:03.270Z,57.81
2019-04-10T07:36:06.723Z,58.57
2019-04-10T07:37:02.616Z,58.28
2019-04-10T07:38:02.639Z,57.81
2019-04-10T07:39:03.430Z,57.43
2019-04-10T07:40:04.493Z,57.43
2019-04-10T07:41:07.020Z,56.76
2019-04-10T07:42:02.721Z,56.67
2019-04-10T07:43:02.742Z,56.57
2019-04-10T07:44:03.710Z,56.48
2019-04-10T07:45:02.783Z,56.76
2019-04-10T07:46:02.810Z,56.67
2019-04-10T07:47:02.833Z,60.97
2019-04-10T07:48:02.856Z,61.19
2019-04-10T07:49:03.019Z,59.77
2019-04-10T07:50:04.613Z,59.36
2019-04-10T07:51:02.931Z,58.31
2019-04-10T07:52:03.626Z,58.40
2019-04-10T07:53:03.072Z,58.59
2019-04-10T07:54:04.041Z,59.52
2019-04-10T07:55:03.010Z,58.47
2019-04-10T07:56:07.621Z,58.88
2019-04-10T07:57:04.194Z,59.64
2019-04-10T07:58:03.082Z,58.31
2019-04-10T07:59:03.112Z,59.23
2019-04-10T08:00:03.241Z,59.55
2019-04-10T08:01:03.142Z,59.45
2019-04-10T08:02:05.848Z,58.12
2019-04-10T08:03:04.176Z,58.69
2019-04-10T08:04:04.166Z,59.01
2019-04-10T08:05:04.266Z,58.06
2019-04-10T08:06:03.437Z,57.48
2019-04-10T08:07:03.296Z,57.29
2019-04-10T08:08:03.306Z,57.67
2019-04-10T08:09:04.038Z,57.77
2019-04-10T08:10:03.615Z,57.01
2019-04-10T08:11:03.368Z,56.44
2019-04-10T08:12:03.392Z,57.39
2019-04-10T08:13:04.402Z,55.90
2019-04-10T08:14:06.207Z,56.05
2019-04-10T08:15:03.462Z,56.65
2019-04-10T08:16:03.476Z,56.65
2019-04-10T08:17:03.769Z,55.61
2019-04-10T08:18:04.479Z,55.32
2019-04-10T08:19:04.107Z,55.22
2019-04-10T08:20:03.819Z,55.42
2019-04-10T08:21:03.616Z,55.42
2019-04-10T08:22:03.748Z,55.20
2019-04-10T08:23:03.749Z,55.51
2019-04-10T08:24:03.773Z,55.22
2019-04-10T08:25:04.402Z,55.20
2019-04-10T08:26:03.712Z,55.96
2019-04-10T08:27:03.758Z,56.63
2019-04-10T08:28:03.757Z,56.34
2019-04-10T08:29:03.782Z,55.96
2019-04-10T08:30:03.816Z,55.77
2019-04-10T08:31:04.414Z,56.24
2019-04-10T08:32:03.852Z,55.96
2019-04-10T08:33:04.817Z,55.77
2019-04-10T08:34:03.907Z,55.58
2019-04-10T08:35:04.632Z,55.51
2019-04-10T08:36:03.957Z,55.10
2019-04-10T08:37:03.968Z,55.22
2019-04-10T08:38:03.986Z,54.90
2019-04-10T08:39:04.649Z,52.48
2019-04-10T08:40:05.270Z,50.59
2019-04-10T08:41:05.006Z,47.94
2019-04-10T08:42:04.352Z,46.22
2019-04-10T08:43:04.217Z,46.30
2019-04-10T08:44:04.434Z,47.03
2019-04-10T08:45:04.990Z,47.71
2019-04-10T08:46:05.212Z,48.07
2019-04-10T08:47:04.207Z,49.68
2019-04-10T08:48:04.227Z,50.16
2019-04-10T08:49:04.245Z,50.42
2019-04-10T08:50:05.507Z,50.23
2019-04-10T08:51:04.295Z,49.95
2019-04-10T08:52:04.315Z,51.66
2019-04-10T08:53:04.369Z,50.90
2019-04-10T08:54:04.367Z,50.42
2019-04-10T08:55:04.391Z,49.87
2019-04-10T08:56:04.526Z,48.44
2019-04-10T08:57:05.338Z,48.35
2019-04-10T08:58:04.461Z,48.92
2019-04-10T08:59:05.498Z,49.56
2019-04-10T09:00:04.647Z,49.37
2019-04-10T09:01:05.006Z,50.71
2019-04-10T09:02:04.571Z,50.54
2019-04-10T09:03:04.580Z,50.04
2019-04-10T09:04:05.629Z,49.40
2019-04-10T09:05:05.607Z,48.71
2019-04-10T09:06:04.662Z,48.54
2019-04-10T09:07:05.719Z,47.97
2019-04-10T09:08:04.711Z,48.08
2019-04-10T09:09:05.450Z,48.13
2019-04-10T09:10:05.897Z,46.63
2019-04-10T09:11:04.988Z,44.81
2019-04-10T09:12:05.216Z,43.95
2019-04-10T09:13:04.827Z,44.51
2019-04-10T09:14:05.183Z,44.98
2019-04-10T09:15:05.549Z,44.41
2019-04-10T09:16:04.883Z,44.98
2019-04-10T09:17:04.957Z,45.75
2019-04-10T09:18:06.013Z,45.06
2019-04-10T09:19:05.582Z,44.87
2019-04-10T09:20:05.030Z,46.18
2019-04-10T09:21:05.055Z,47.34
2019-04-10T09:22:05.968Z,46.39
2019-04-10T09:23:18.943Z,46.20
2019-04-10T09:24:05.082Z,46.39
2019-04-10T09:25:05.115Z,45.06
2019-04-10T09:26:05.828Z,45.43
2019-04-10T09:27:05.169Z,45.72
2019-04-10T09:28:06.345Z,45.82
2019-04-10T09:29:05.230Z,45.34
2019-04-10T09:30:05.242Z,44.98
2019-04-10T09:31:05.264Z,44.96
2019-04-10T09:32:06.365Z,44.96
2019-04-10T09:33:16.009Z,45.08
2019-04-10T09:34:05.468Z,45.10
2019-04-10T09:35:06.521Z,44.24
2019-04-10T09:36:05.383Z,43.66
2019-04-10T09:37:06.000Z,43.57
2019-04-10T09:38:06.249Z,42.83
2019-04-10T09:39:05.450Z,42.85
2019-04-10T09:40:05.648Z,41.07
2019-04-10T09:41:05.718Z,39.45
2019-04-10T09:42:06.680Z,38.78
2019-04-10T09:43:05.556Z,38.56
2019-04-10T09:44:06.539Z,38.59
2019-04-10T09:45:05.604Z,37.63
2019-04-10T09:46:06.442Z,37.82
2019-04-10T09:47:05.655Z,37.92
2019-04-10T09:48:06.472Z,37.80
2019-04-10T09:49:06.874Z,38.39
2019-04-10T09:50:05.791Z,37.45
2019-04-10T09:51:05.780Z,36.04
2019-04-10T09:52:06.801Z,35.19
2019-04-10T09:53:05.810Z,34.42
2019-04-10T09:54:05.849Z,33.67
2019-04-10T09:55:05.870Z,33.50
2019-04-10T09:56:05.920Z,33.16
2019-04-10T09:57:06.929Z,31.23
2019-04-10T09:58:06.795Z,30.97
2019-04-10T09:59:05.985Z,29.20
2019-04-10T10:00:05.994Z,28.04
2019-04-10T10:01:06.022Z,27.76
2019-04-10T10:02:07.067Z,27.59
2019-04-10T10:03:06.082Z,25.84
2019-04-10T10:04:06.918Z,25.33
2019-04-10T10:05:06.379Z,26.80
2019-04-10T10:06:07.030Z,26.31
2019-04-10T10:07:06.188Z,27.48
2019-04-10T10:08:06.462Z,26.27
2019-04-10T10:09:06.340Z,28.13
2019-04-10T10:10:06.568Z,26.69
2019-04-10T10:11:06.316Z,26.42
2019-04-10T10:12:07.328Z,26.92
2019-04-10T10:13:07.429Z,24.14
2019-04-10T10:14:06.388Z,24.33
2019-04-10T10:15:07.247Z,23.92
2019-04-10T10:16:06.518Z,24.69
2019-04-10T10:17:06.588Z,25.09
2019-04-10T10:18:06.514Z,24.97
2019-04-10T10:19:06.538Z,25.34
2019-04-10T10:20:07.815Z,26.43
2019-04-10T10:21:06.590Z,25.76
2019-04-10T10:22:07.595Z,24.93
2019-04-10T10:23:06.654Z,23.39
2019-04-10T10:24:06.686Z,22.39
2019-04-10T10:25:06.999Z,22.61
2019-04-10T10:26:07.891Z,22.52
2019-04-10T10:27:07.400Z,22.69
2019-04-10T10:28:07.027Z,22.98
2019-04-10T10:29:06.833Z,22.59
2019-04-10T10:30:07.137Z,23.08
2019-04-10T10:31:06.904Z,23.25
2019-04-10T10:32:06.932Z,24.20
2019-04-10T10:33:07.785Z,24.79
2019-04-10T10:34:06.999Z,23.83
2019-04-10T10:35:07.211Z,23.36
2019-04-10T10:36:07.482Z,22.98
2019-04-10T10:37:08.310Z,22.61
2019-04-10T10:38:07.620Z,21.56
2019-04-10T10:39:11.924Z,21.65
2019-04-10T10:40:08.332Z,21.09
2019-04-10T10:41:07.205Z,20.79
2019-04-10T10:42:07.595Z,21.23
2019-04-10T10:43:07.862Z,23.82
2019-04-10T10:44:07.304Z,23.60
2019-04-10T10:45:07.352Z,25.28
2019-04-10T10:46:07.381Z,26.75
2019-04-10T10:47:08.344Z,29.42
2019-04-10T10:48:08.690Z,30.30
2019-04-10T10:49:08.396Z,29.98
2019-04-10T10:50:08.662Z,30.52
2019-04-10T10:51:08.678Z,32.76
2019-04-10T10:52:07.550Z,33.54
2019-04-10T10:53:08.121Z,32.98
2019-04-10T10:54:08.565Z,31.66
2019-04-10T10:55:07.789Z,31.18
2019-04-10T10:56:07.691Z,31.11
2019-04-10T10:57:08.749Z,30.54
2019-04-10T10:58:07.968Z,29.11
2019-04-10T10:59:07.774Z,28.49
2019-04-10T11:00:08.387Z,26.32
2019-04-10T11:01:07.827Z,23.61
2019-04-10T11:02:08.544Z,23.21
2019-04-10T11:03:07.887Z,22.52
2019-04-10T11:04:08.792Z,22.38
2019-04-10T11:05:08.816Z,25.39
2019-04-10T11:06:08.751Z,25.90
2019-04-10T11:07:08.642Z,25.73
2019-04-10T11:08:08.192Z,25.05
2019-04-10T11:09:08.364Z,25.35
2019-04-10T11:10:08.474Z,24.93
2019-04-10T11:11:08.703Z,25.38
2019-04-10T11:12:09.461Z,27.27
2019-04-10T11:13:08.878Z,27.95
2019-04-10T11:14:08.230Z,28.63
2019-04-10T11:15:08.261Z,28.01
2019-04-10T11:16:09.247Z,29.71
2019-04-10T11:17:09.238Z,31.15
2019-04-10T11:18:08.523Z,31.80
2019-04-10T11:19:08.410Z,32.28
2019-04-10T11:20:08.417Z,31.71
2019-04-10T11:21:11.570Z,32.15
2019-04-10T11:22:09.375Z,33.00
2019-04-10T11:23:09.545Z,33.36
2019-04-10T11:24:09.233Z,34.14
2019-04-10T11:25:08.570Z,34.43
2019-04-10T11:26:08.628Z,34.42
2019-04-10T11:27:09.997Z,35.66
2019-04-10T11:28:08.644Z,36.04
2019-04-10T11:29:09.931Z,36.02
2019-04-10T11:30:10.047Z,35.57
2019-04-10T11:31:09.264Z,35.47
2019-04-10T11:32:09.264Z,34.69
2019-04-10T11:33:08.795Z,34.59
2019-04-10T11:34:09.956Z,35.64
2019-04-10T11:35:08.842Z,36.60
2019-04-10T11:36:09.835Z,36.60
2019-04-10T11:37:23.441Z,36.02
2019-04-10T11:38:08.926Z,35.64
2019-04-10T11:39:17.130Z,35.72
2019-04-10T11:40:09.050Z,36.58
2019-04-10T11:41:09.122Z,36.39
2019-04-10T11:42:09.947Z,37.15
2019-04-10T11:43:10.068Z,37.24
2019-04-10T11:44:09.842Z,36.43
2019-04-10T11:45:10.283Z,35.74
2019-04-10T11:46:10.282Z,36.69
2019-04-10T11:47:10.478Z,36.58
2019-04-10T11:48:10.315Z,37.24
2019-04-10T11:49:11.061Z,38.30
2019-04-10T11:50:13.566Z,38.30
2019-04-10T11:51:12.414Z,36.96
2019-04-10T11:52:10.527Z,36.39
2019-04-10T11:53:10.409Z,36.27
2019-04-10T11:54:12.961Z,36.75
2019-04-10T11:55:13.834Z,37.73
2019-04-10T11:56:11.540Z,37.63
2019-04-10T11:57:10.089Z,36.19
2019-04-10T11:58:11.330Z,36.98
2019-04-10T11:59:11.778Z,36.60
2019-04-10T12:00:12.073Z,35.64
2019-04-10T12:01:10.546Z,35.55
2019-04-10T12:02:10.230Z,35.35
2019-04-10T12:03:10.305Z,34.69
2019-04-10T12:04:10.761Z,35.55
2019-04-10T12:05:14.763Z,35.35
2019-04-10T12:06:11.958Z,35.45
2019-04-10T12:07:16.418Z,36.02
2019-04-10T12:08:33.432Z,36.60
2019-04-10T12:09:45.036Z,36.50
2019-04-10T12:11:14.580Z,37.46
2019-04-10T12:12:09.830Z,36.31
2019-04-10T12:13:10.213Z,36.00
2019-04-10T12:14:11.013Z,35.43
2019-04-10T12:15:10.152Z,35.32
2019-04-10T12:16:09.962Z,36.37
2019-04-10T12:17:09.981Z,37.13
2019-04-10T12:18:10.679Z,37.61
2019-04-10T12:19:10.962Z,37.32
2019-04-10T12:20:11.131Z,37.23
2019-04-10T12:21:10.056Z,37.51
2019-04-10T12:22:10.107Z,37.23
2019-04-10T12:23:10.423Z,36.37
2019-04-10T12:24:10.138Z,36.56
2019-04-10T12:25:10.271Z,36.37
2019-04-10T12:26:10.222Z,37.42
2019-04-10T12:27:10.213Z,37.90
2019-04-10T12:28:10.259Z,37.23
2019-04-10T12:29:10.811Z,37.88
2019-04-10T12:30:11.144Z,37.40
2019-04-10T12:31:10.310Z,37.97
2019-04-10T12:32:10.412Z,37.30
2019-04-10T12:33:11.470Z,37.59
2019-04-10T12:34:10.782Z,37.21
2019-04-10T12:35:10.913Z,37.78
2019-04-10T12:36:10.449Z,37.12
2019-04-10T12:37:11.211Z,37.02
2019-04-10T12:38:13.162Z,37.78
2019-04-10T12:39:10.517Z,37.40
2019-04-10T12:40:11.750Z,37.10
2019-04-10T12:41:11.010Z,37.88
2019-04-10T12:42:10.598Z,37.78
2019-04-10T12:43:10.619Z,36.92
2019-04-10T12:44:11.656Z,37.02
2019-04-10T12:45:11.426Z,37.00
2019-04-10T12:46:10.813Z,37.68
2019-04-10T12:47:10.751Z,37.29
2019-04-10T12:48:10.743Z,37.29
2019-04-10T12:49:11.534Z,37.38
2019-04-10T12:50:10.791Z,37.76
2019-04-10T12:51:11.859Z,37.40
2019-04-10T12:52:10.846Z,36.92
2019-04-10T12:53:11.585Z,36.54
2019-04-10T12:54:11.898Z,36.62